createdAt,value
2023-03-28T00:00:58.323Z,1.70
2023-03-28T00:03:29.003Z,1.70
2023-03-28T00:06:00.866Z,1.70
2023-03-28T00:08:29.742Z,1.70
2023-03-28T00:11:05.794Z,1.60
2023-03-28T00:13:33.723Z,2.40
2023-03-28T00:16:07.510Z,1.60
2023-03-28T00:18:37.585Z,1.60
2023-03-28T00:21:10.034Z,2.40
2023-03-28T00:23:37.963Z,1.50
2023-03-28T00:26:09.555Z,3.40
2023-03-28T00:28:38.030Z,1.40
2023-03-28T00:31:07.641Z,1.30
2023-03-28T00:33:35.782Z,1.30
2023-03-28T00:36:04.068Z,1.20
2023-03-28T00:38:33.525Z,1.20
2023-03-28T00:41:01.425Z,1.30
2023-03-28T00:43:40.843Z,1.20
2023-03-28T00:46:14.699Z,1.30
2023-03-28T00:48:51.173Z,1.30
2023-03-28T00:51:20.976Z,1.30
2023-03-28T00:53:52.414Z,2.70
2023-03-28T00:56:23.363Z,3.20
2023-03-28T00:58:52.963Z,2.70
2023-03-28T01:01:22.189Z,1.40
2023-03-28T01:04:02.123Z,2.20
2023-03-28T01:06:32.817Z,1.20
2023-03-28T01:09:05.567Z,1.40
2023-03-28T01:11:33.835Z,2.10
2023-03-28T01:14:04.169Z,2.20
2023-03-28T01:16:32.798Z,1.00
2023-03-28T01:19:02.722Z,1.50
2023-03-28T01:22:01.023Z,2.10
2023-03-28T01:24:57.947Z,1.70
2023-03-28T01:27:31.490Z,1.70
2023-03-28T01:30:25.245Z,1.40
2023-03-28T01:33:14.760Z,2.80
2023-03-28T01:36:33.692Z,1.60
2023-03-28T01:39:12.836Z,1.80
2023-03-28T01:41:47.116Z,1.40
2023-03-28T01:44:22.885Z,1.70
2023-03-28T01:47:00.267Z,1.80
2023-03-28T01:49:37.155Z,1.40
2023-03-28T01:52:13.641Z,1.80
2023-03-28T01:54:47.404Z,1.70
2023-03-28T01:57:21.437Z,1.40
2023-03-28T01:59:54.896Z,1.80
2023-03-28T02:02:27.521Z,1.60
2023-03-28T02:04:59.720Z,1.80
2023-03-28T02:07:28.799Z,3.90
2023-03-28T02:09:59.164Z,1.80
2023-03-28T02:12:34.632Z,1.70
2023-03-28T02:15:05.080Z,1.70
2023-03-28T02:17:39.252Z,1.80
2023-03-28T02:20:11.793Z,1.50
2023-03-28T02:22:46.634Z,1.80
2023-03-28T02:25:16.139Z,1.70
2023-03-28T02:27:47.670Z,1.60
2023-03-28T02:30:16.142Z,2.80
2023-03-28T02:32:49.579Z,1.50
2023-03-28T02:35:19.195Z,1.60
2023-03-28T02:37:55.213Z,1.50
2023-03-28T02:40:36.674Z,1.50
2023-03-28T02:43:26.817Z,1.50
2023-03-28T02:46:14.208Z,1.50
2023-03-28T02:49:08.596Z,1.50
2023-03-28T02:51:41.813Z,1.40
2023-03-28T02:54:22.788Z,1.10
2023-03-28T02:57:01.455Z,1.30
2023-03-28T02:59:34.701Z,1.30
2023-03-28T03:02:04.612Z,1.30
2023-03-28T03:04:32.694Z,1.20
2023-03-28T03:07:02.405Z,1.10
2023-03-28T03:09:30.321Z,1.20
2023-03-28T03:11:59.562Z,1.20
2023-03-28T03:14:27.680Z,1.30
2023-03-28T03:16:55.986Z,1.20
2023-03-28T03:19:24.104Z,1.30
2023-03-28T03:21:51.991Z,1.10
2023-03-28T03:24:19.852Z,0.90
2023-03-28T03:26:47.759Z,1.20
2023-03-28T03:29:17.456Z,1.10
2023-03-28T03:31:45.395Z,1.30
2023-03-28T03:34:13.340Z,1.00
2023-03-28T03:36:42.681Z,1.40
2023-03-28T03:39:10.714Z,1.20
2023-03-28T03:41:38.636Z,1.20
2023-03-28T03:44:06.797Z,1.30
2023-03-28T03:46:36.312Z,1.90
2023-03-28T03:49:04.292Z,1.20
2023-03-28T03:51:34.050Z,1.40
2023-03-28T03:54:02.078Z,1.30
2023-03-28T03:56:29.979Z,1.40
2023-03-28T03:58:57.931Z,1.30
2023-03-28T04:01:30.163Z,1.20
2023-03-28T04:03:59.753Z,1.50
2023-03-28T04:06:29.423Z,1.30
2023-03-28T04:08:57.318Z,1.20
2023-03-28T04:11:25.272Z,3.70
2023-03-28T04:13:53.237Z,1.40
2023-03-28T04:16:21.511Z,1.50
2023-03-28T04:18:52.779Z,1.40
2023-03-28T04:21:27.373Z,2.80
2023-03-28T04:23:55.892Z,1.00
2023-03-28T04:26:26.908Z,1.20
2023-03-28T04:28:55.401Z,1.20
2023-03-28T04:31:29.482Z,1.20
2023-03-28T04:33:57.955Z,1.10
2023-03-28T04:36:29.168Z,1.00
2023-03-28T04:38:59.153Z,1.00
2023-03-28T04:41:27.084Z,0.80
2023-03-28T04:43:55.173Z,0.60
2023-03-28T04:46:23.157Z,0.60
2023-03-28T04:48:56.229Z,0.70
2023-03-28T04:51:25.244Z,0.70
2023-03-28T04:53:54.519Z,0.70
2023-03-28T04:56:23.361Z,0.70
2023-03-28T04:58:51.210Z,0.20
2023-03-28T05:01:19.109Z,0.60
2023-03-28T05:03:47.026Z,0.80
2023-03-28T05:06:14.968Z,0.70
2023-03-28T05:08:43.715Z,0.60
2023-03-28T05:11:12.971Z,0.70
2023-03-28T05:13:40.924Z,0.80
2023-03-28T05:16:09.391Z,0.80
2023-03-28T05:18:37.258Z,1.00
2023-03-28T05:21:06.071Z,0.80
2023-03-28T05:23:33.950Z,1.00
2023-03-28T05:26:02.554Z,0.80
2023-03-28T05:28:32.359Z,0.80
2023-03-28T05:31:00.759Z,1.20
2023-03-28T05:33:28.872Z,0.80
2023-03-28T05:35:56.790Z,0.90
2023-03-28T05:38:24.715Z,1.40
2023-03-28T05:40:52.637Z,1.00
2023-03-28T05:43:20.796Z,0.90
2023-03-28T05:45:50.109Z,1.00
2023-03-28T05:48:18.368Z,1.60
2023-03-28T05:50:48.332Z,1.80
2023-03-28T05:53:16.200Z,1.00
2023-03-28T05:55:44.262Z,1.10
2023-03-28T05:58:12.273Z,1.20
2023-03-28T06:00:40.152Z,1.20
2023-03-28T06:03:09.544Z,1.20
2023-03-28T06:05:44.552Z,1.30
2023-03-28T06:08:12.443Z,1.20
2023-03-28T06:10:40.546Z,1.10
2023-03-28T06:13:08.467Z,1.30
2023-03-28T06:15:36.461Z,1.40
2023-03-28T06:18:04.393Z,1.40
2023-03-28T06:20:33.695Z,1.60
2023-03-28T06:23:03.582Z,1.70
2023-03-28T06:25:31.432Z,1.70
2023-03-28T06:27:59.309Z,1.70
2023-03-28T06:30:27.223Z,1.80
2023-03-28T06:32:55.134Z,1.80
2023-03-28T06:35:23.120Z,2.20
2023-03-28T06:37:52.372Z,1.90
2023-03-28T06:40:20.275Z,1.90
2023-03-28T06:42:48.230Z,2.10
2023-03-28T06:45:16.166Z,2.10
2023-03-28T06:47:45.402Z,2.20
2023-03-28T06:50:13.786Z,2.00
2023-03-28T06:52:41.684Z,2.30
2023-03-28T06:55:11.882Z,3.70
2023-03-28T06:57:39.792Z,2.60
2023-03-28T07:00:09.214Z,2.20
2023-03-28T07:02:37.161Z,3.00
2023-03-28T07:05:05.439Z,2.80
2023-03-28T07:07:33.373Z,3.20
2023-03-28T07:10:01.297Z,2.90
2023-03-28T07:12:30.616Z,3.10
2023-03-28T07:14:58.482Z,2.60
2023-03-28T07:17:26.402Z,5.20
2023-03-28T07:19:54.356Z,5.80
2023-03-28T07:22:24.779Z,5.30
2023-03-28T07:24:52.676Z,3.40
2023-03-28T07:27:20.626Z,5.50
2023-03-28T07:29:49.934Z,5.60
2023-03-28T07:32:18.093Z,5.90
2023-03-28T07:34:46.010Z,5.10
2023-03-28T07:37:14.156Z,4.00
2023-03-28T07:39:43.749Z,5.10
2023-03-28T07:42:12.548Z,4.10
2023-03-28T07:44:42.349Z,4.80
2023-03-28T07:47:12.113Z,4.90
2023-03-28T07:49:40.992Z,6.60
2023-03-28T07:52:08.951Z,6.70
2023-03-28T07:54:37.331Z,4.80
2023-03-28T07:57:05.794Z,5.20
2023-03-28T07:59:34.001Z,5.90
2023-03-28T08:02:02.597Z,5.00
2023-03-28T08:04:32.250Z,5.00
2023-03-28T08:07:00.371Z,5.40
2023-03-28T08:09:28.504Z,5.30
2023-03-28T08:11:56.459Z,5.80
2023-03-28T08:14:24.690Z,6.40
2023-03-28T08:16:52.863Z,9.10
2023-03-28T08:19:21.079Z,8.20
2023-03-28T08:21:50.329Z,7.80
2023-03-28T08:24:29.010Z,7.90
2023-03-28T08:27:03.179Z,7.80
2023-03-28T08:29:31.133Z,7.70
2023-03-28T08:32:00.058Z,10.00
2023-03-28T08:34:28.981Z,8.30
2023-03-28T08:36:59.097Z,8.00
2023-03-28T08:39:27.159Z,8.90
2023-03-28T08:42:09.342Z,7.60
2023-03-28T08:45:04.404Z,7.30
2023-03-28T08:47:34.363Z,7.80
2023-03-28T08:50:08.805Z,7.80
2023-03-28T08:52:39.566Z,9.80
2023-03-28T08:55:22.446Z,7.80
2023-03-28T08:57:53.284Z,8.50
2023-03-28T09:00:24.542Z,8.00
2023-03-28T09:02:52.547Z,7.80
2023-03-28T09:05:30.394Z,8.30
2023-03-28T09:08:06.548Z,8.20
2023-03-28T09:10:40.594Z,7.70
2023-03-28T09:13:20.346Z,7.80
2023-03-28T09:16:04.299Z,7.80
2023-03-28T09:18:46.505Z,7.90
2023-03-28T09:21:22.553Z,9.80
2023-03-28T09:24:07.330Z,9.30
2023-03-28T09:26:37.068Z,10.40
2023-03-28T09:29:10.457Z,8.40
2023-03-28T09:31:43.869Z,11.30
2023-03-28T09:34:17.876Z,9.60
2023-03-28T09:36:49.759Z,10.00
2023-03-28T09:39:32.658Z,10.00
2023-03-28T09:42:06.137Z,9.70
2023-03-28T09:44:53.483Z,9.60
2023-03-28T09:47:22.863Z,9.90
2023-03-28T09:49:59.232Z,9.70
2023-03-28T09:52:33.908Z,9.90
2023-03-28T09:55:03.452Z,10.10
2023-03-28T09:58:02.408Z,10.00
2023-03-28T10:00:30.810Z,10.10
2023-03-28T10:02:58.815Z,10.40
2023-03-28T10:05:33.904Z,10.40
2023-03-28T10:08:05.829Z,10.60
2023-03-28T10:10:35.136Z,10.80
2023-03-28T10:13:05.616Z,10.60
2023-03-28T10:15:42.764Z,10.20
2023-03-28T10:18:19.088Z,10.20
2023-03-28T10:20:50.264Z,10.00
2023-03-28T10:23:18.212Z,9.40
2023-03-28T10:25:52.158Z,9.90
2023-03-28T10:28:28.449Z,9.90
2023-03-28T10:30:59.721Z,10.50
2023-03-28T10:33:32.727Z,9.60
2023-03-28T10:36:02.321Z,9.50
2023-03-28T10:38:38.131Z,9.40
2023-03-28T10:41:12.132Z,9.30
2023-03-28T10:43:41.678Z,9.70
2023-03-28T10:46:16.697Z,11.00
2023-03-28T10:48:50.420Z,11.20
2023-03-28T10:51:22.021Z,11.10
2023-03-28T10:54:01.074Z,10.20
2023-03-28T10:56:38.371Z,10.50
2023-03-28T10:59:29.578Z,11.20
2023-03-28T11:02:13.085Z,10.90
2023-03-28T11:04:57.875Z,11.30
2023-03-28T11:07:33.089Z,11.60
2023-03-28T11:10:09.999Z,11.90
2023-03-28T11:12:56.683Z,12.20
2023-03-28T11:15:31.709Z,12.40
2023-03-28T11:18:13.551Z,12.60
2023-03-28T11:20:50.782Z,12.60
2023-03-28T11:23:38.861Z,13.30
2023-03-28T11:26:10.402Z,12.90
2023-03-28T11:28:53.703Z,12.90
2023-03-28T11:31:25.186Z,12.80
2023-03-28T11:33:58.868Z,12.60
2023-03-28T11:36:32.447Z,12.30
2023-03-28T11:39:07.187Z,12.30
2023-03-28T11:41:39.028Z,12.60
2023-03-28T11:44:15.704Z,13.20
2023-03-28T11:46:47.872Z,12.90
2023-03-28T11:49:22.138Z,12.80
2023-03-28T11:51:56.845Z,12.90
2023-03-28T11:54:32.142Z,13.10
2023-03-28T11:57:05.796Z,13.20
2023-03-28T11:59:44.148Z,13.20
2023-03-28T12:02:24.030Z,13.00
2023-03-28T12:04:57.311Z,12.40
2023-03-28T12:07:31.176Z,12.30
2023-03-28T12:10:08.768Z,12.80
2023-03-28T12:12:42.591Z,12.50
2023-03-28T12:15:17.143Z,12.40
2023-03-28T12:17:48.080Z,13.40
2023-03-28T12:20:31.919Z,11.90
2023-03-28T12:23:05.240Z,12.10
2023-03-28T12:25:39.253Z,11.60
2023-03-28T12:28:14.660Z,11.40
2023-03-28T12:30:50.228Z,12.00
2023-03-28T12:33:23.029Z,11.40
2023-03-28T12:35:57.288Z,11.50
2023-03-28T12:38:32.295Z,11.60
2023-03-28T12:41:03.826Z,11.40
2023-03-28T12:43:45.925Z,11.40
2023-03-28T12:46:19.192Z,11.30
2023-03-28T12:48:51.015Z,11.30
2023-03-28T12:51:25.258Z,11.20
2023-03-28T12:54:03.458Z,11.20
2023-03-28T12:56:32.221Z,11.00
2023-03-28T12:59:00.650Z,12.50
2023-03-28T13:01:38.008Z,12.50
2023-03-28T13:04:26.295Z,11.00
2023-03-28T13:07:06.367Z,11.20
2023-03-28T13:09:47.291Z,11.90
2023-03-28T13:12:36.091Z,11.00
2023-03-28T13:15:25.960Z,11.20
2023-03-28T13:18:34.853Z,11.40
2023-03-28T13:21:07.185Z,11.60
2023-03-28T13:23:45.770Z,11.80
2023-03-28T13:26:14.348Z,11.80
2023-03-28T13:28:45.747Z,12.10
2023-03-28T13:31:21.426Z,13.40
2023-03-28T13:33:58.411Z,12.60
2023-03-28T13:36:28.975Z,12.30
2023-03-28T13:39:16.455Z,11.60
2023-03-28T13:42:02.792Z,11.50
2023-03-28T13:44:41.311Z,11.40
2023-03-28T13:47:16.948Z,11.30
2023-03-28T13:49:50.533Z,11.40
2023-03-28T13:52:21.705Z,11.50
2023-03-28T13:54:54.027Z,11.60
2023-03-28T13:57:25.824Z,11.60
2023-03-28T13:59:56.399Z,12.50
2023-03-28T14:02:33.888Z,13.70
2023-03-28T14:05:15.389Z,12.40
2023-03-28T14:07:43.347Z,11.80
2023-03-28T14:10:29.683Z,11.70
2023-03-28T14:13:00.976Z,11.60
2023-03-28T14:15:33.835Z,11.70
2023-03-28T14:18:03.477Z,13.10
2023-03-28T14:20:34.572Z,11.30
2023-03-28T14:23:02.598Z,11.20
2023-03-28T14:25:31.444Z,11.10
2023-03-28T14:28:08.414Z,11.10
2023-03-28T14:30:40.250Z,11.10
2023-03-28T14:33:20.161Z,11.80
2023-03-28T14:35:59.466Z,10.80
2023-03-28T14:38:33.230Z,10.80
2023-03-28T14:41:13.045Z,10.90
2023-03-28T14:43:41.274Z,11.10
2023-03-28T14:46:12.251Z,11.00
2023-03-28T14:48:42.497Z,9.50
2023-03-28T14:51:14.909Z,11.90
2023-03-28T14:53:47.322Z,11.00
2023-03-28T14:56:19.379Z,10.90
2023-03-28T14:58:49.935Z,10.90
2023-03-28T15:01:22.791Z,12.90
2023-03-28T15:03:54.830Z,12.50
2023-03-28T15:06:24.492Z,11.30
2023-03-28T15:08:52.722Z,11.60
2023-03-28T15:11:25.575Z,11.00
2023-03-28T15:14:02.878Z,11.00
2023-03-28T15:16:33.223Z,10.50
2023-03-28T15:19:06.837Z,10.40
2023-03-28T15:21:37.984Z,12.30
2023-03-28T15:24:07.378Z,10.50
2023-03-28T15:26:38.354Z,10.40
2023-03-28T15:29:08.527Z,10.40
2023-03-28T15:31:39.861Z,10.30
2023-03-28T15:34:11.751Z,11.10
2023-03-28T15:36:50.014Z,10.40
2023-03-28T15:39:23.308Z,10.30
2023-03-28T15:41:54.703Z,12.20
2023-03-28T15:44:31.041Z,10.50
2023-03-28T15:47:04.754Z,10.00
2023-03-28T15:49:37.123Z,9.90
2023-03-28T15:52:09.501Z,9.50
2023-03-28T15:54:43.132Z,9.70
2023-03-28T15:57:14.033Z,9.60
2023-03-28T15:59:48.298Z,10.30
2023-03-28T16:02:33.023Z,9.20
2023-03-28T16:05:02.841Z,9.00
2023-03-28T16:07:36.827Z,9.30
2023-03-28T16:10:05.816Z,8.90
2023-03-28T16:12:33.736Z,8.90
2023-03-28T16:15:03.996Z,8.90
2023-03-28T16:17:32.507Z,8.90
2023-03-28T16:20:00.732Z,8.90
2023-03-28T16:22:31.798Z,8.80
2023-03-28T16:25:02.123Z,8.90
2023-03-28T16:27:31.229Z,8.80
2023-03-28T16:29:59.230Z,8.80
2023-03-28T16:32:27.247Z,7.90
2023-03-28T16:34:55.361Z,8.80
2023-03-28T16:37:23.330Z,8.60
2023-03-28T16:39:51.415Z,8.50
2023-03-28T16:42:21.555Z,8.60
2023-03-28T16:44:49.429Z,9.80
2023-03-28T16:47:17.369Z,8.80
2023-03-28T16:49:45.477Z,8.50
2023-03-28T16:52:13.451Z,9.80
2023-03-28T16:54:41.568Z,8.60
2023-03-28T16:57:09.491Z,8.40
2023-03-28T16:59:41.042Z,10.10
2023-03-28T17:02:10.701Z,10.40
2023-03-28T17:04:38.806Z,8.40
2023-03-28T17:07:06.762Z,8.40
2023-03-28T17:09:34.723Z,8.80
2023-03-28T17:12:02.753Z,8.20
2023-03-28T17:14:30.662Z,9.60
2023-03-28T17:17:00.057Z,8.00
2023-03-28T17:19:28.974Z,8.00
2023-03-28T17:21:57.131Z,8.00
2023-03-28T17:24:25.174Z,7.90
2023-03-28T17:26:53.176Z,9.60
2023-03-28T17:29:21.450Z,7.80
2023-03-28T17:31:49.479Z,7.80
2023-03-28T17:34:19.019Z,8.20
2023-03-28T17:36:47.203Z,7.70
2023-03-28T17:39:16.612Z,10.00
2023-03-28T17:41:47.781Z,7.90
2023-03-28T17:44:16.073Z,7.60
2023-03-28T17:46:46.737Z,7.50
2023-03-28T17:49:16.986Z,7.30
2023-03-28T17:51:49.859Z,7.40
2023-03-28T17:54:39.822Z,8.70
2023-03-28T17:57:08.216Z,7.40
2023-03-28T17:59:36.781Z,7.30
2023-03-28T18:02:05.391Z,7.40
2023-03-28T18:04:33.444Z,7.30
2023-03-28T18:07:02.759Z,7.60
2023-03-28T18:09:44.557Z,6.90
2023-03-28T18:12:13.179Z,8.40
2023-03-28T18:14:41.465Z,7.00
2023-03-28T18:17:09.489Z,7.00
2023-03-28T18:19:37.470Z,7.90
2023-03-28T18:22:12.691Z,6.70
2023-03-28T18:24:40.765Z,6.80
2023-03-28T18:27:08.751Z,8.60
2023-03-28T18:29:36.669Z,6.80
2023-03-28T18:32:04.843Z,8.00
2023-03-28T18:34:33.022Z,6.80
2023-03-28T18:58:26.070Z,6.50
2023-03-28T19:00:58.966Z,6.40
2023-03-28T19:03:28.348Z,6.30
2023-03-28T19:05:57.312Z,7.20
2023-03-28T19:08:26.330Z,7.10
2023-03-28T19:10:55.045Z,6.40
2023-03-28T19:13:24.532Z,6.70
2023-03-28T19:15:59.389Z,6.10
2023-03-28T19:18:27.527Z,6.10
2023-03-28T19:20:56.904Z,6.00
2023-03-28T19:23:25.972Z,6.30
2023-03-28T19:25:53.872Z,6.00
2023-03-28T19:28:22.341Z,6.00
2023-03-28T19:30:58.497Z,6.30
2023-03-28T19:33:26.921Z,5.90
2023-03-28T19:35:54.943Z,5.90
2023-03-28T19:38:23.339Z,6.40
2023-03-28T19:40:52.156Z,5.80
2023-03-28T19:43:23.720Z,6.00
2023-03-28T19:45:53.092Z,5.80
2023-03-28T19:48:21.389Z,5.70
2023-03-28T19:50:50.739Z,5.70
2023-03-28T19:53:18.625Z,5.90
2023-03-28T19:55:52.964Z,5.60
2023-03-28T19:58:20.875Z,5.70
2023-03-28T20:00:52.430Z,5.60
2023-03-28T20:03:20.318Z,5.40
2023-03-28T20:05:49.475Z,5.50
2023-03-28T20:08:18.862Z,5.50
2023-03-28T20:10:48.823Z,5.50
2023-03-28T20:13:17.214Z,5.40
2023-03-28T20:15:46.228Z,5.40
2023-03-28T20:18:19.669Z,5.40
2023-03-28T20:20:50.211Z,5.80
2023-03-28T20:23:20.217Z,6.20
2023-03-28T20:25:48.398Z,5.30
2023-03-28T20:28:16.308Z,5.20
2023-03-28T20:30:45.704Z,6.10
2023-03-28T20:33:15.369Z,6.20
2023-03-28T20:35:43.439Z,5.50
2023-03-28T20:38:11.580Z,5.20
2023-03-28T20:40:40.837Z,5.20
2023-03-28T20:43:10.024Z,5.20
2023-03-28T20:45:38.869Z,6.50
2023-03-28T20:48:09.748Z,5.20
2023-03-28T20:50:41.173Z,5.20
2023-03-28T20:53:10.115Z,6.60
2023-03-28T20:55:38.393Z,5.70
2023-03-28T20:58:06.637Z,5.20
2023-03-28T21:00:35.741Z,5.20
2023-03-28T21:03:03.843Z,5.20
2023-03-28T21:05:33.138Z,6.30
2023-03-28T21:08:04.312Z,5.20
2023-03-28T21:10:33.266Z,5.20
2023-03-28T21:13:01.207Z,5.10
2023-03-28T21:15:29.187Z,5.10
2023-03-28T21:17:58.556Z,5.00
2023-03-28T21:20:27.286Z,5.80
2023-03-28T21:22:55.218Z,5.10
2023-03-28T21:25:24.477Z,5.20
2023-03-28T21:27:59.741Z,5.80
2023-03-28T21:30:27.776Z,5.20
2023-03-28T21:33:02.193Z,6.30
2023-03-28T21:35:31.468Z,5.00
2023-03-28T21:37:59.431Z,7.00
2023-03-28T21:40:28.656Z,5.10
2023-03-28T21:42:56.589Z,5.80
2023-03-28T21:45:24.466Z,6.80
2023-03-28T21:47:52.403Z,6.00
2023-03-28T21:50:20.329Z,5.10
2023-03-28T21:52:48.265Z,5.30
2023-03-28T21:55:16.460Z,5.00
2023-03-28T21:57:45.754Z,5.00
2023-03-28T22:00:24.562Z,6.10
2023-03-28T22:02:54.207Z,5.00
2023-03-28T22:05:29.252Z,5.90
2023-03-28T22:07:58.217Z,5.90
2023-03-28T22:10:26.927Z,5.00
2023-03-28T22:12:58.708Z,4.70
2023-03-28T22:15:27.308Z,5.80
2023-03-28T22:17:58.188Z,5.00
2023-03-28T22:20:27.725Z,5.00
2023-03-28T22:23:01.144Z,5.00
2023-03-28T22:25:34.486Z,4.80
2023-03-28T22:28:04.755Z,5.00
2023-03-28T22:30:32.789Z,5.30
2023-03-28T22:33:00.748Z,5.00
2023-03-28T22:35:28.740Z,5.00
2023-03-28T22:37:56.619Z,5.00
2023-03-28T22:40:24.514Z,5.00
2023-03-28T22:42:54.077Z,5.00
2023-03-28T22:45:24.234Z,5.30
2023-03-28T22:47:52.295Z,5.00
2023-03-28T22:50:22.458Z,5.70
2023-03-28T22:52:52.708Z,5.10
2023-03-28T22:55:23.525Z,5.10
2023-03-28T22:57:52.629Z,6.10
2023-03-28T23:00:22.763Z,5.20
2023-03-28T23:02:52.894Z,5.30
2023-03-28T23:05:21.180Z,6.30
2023-03-28T23:07:50.562Z,5.40
2023-03-28T23:10:19.982Z,5.50
2023-03-28T23:12:48.884Z,5.50
2023-03-28T23:15:17.250Z,5.60
2023-03-28T23:17:45.654Z,5.60
2023-03-28T23:20:17.068Z,5.70
2023-03-28T23:22:47.222Z,5.70
2023-03-28T23:25:16.936Z,5.70
2023-03-28T23:27:45.545Z,5.80
2023-03-28T23:30:15.294Z,6.40
2023-03-28T23:32:43.243Z,5.80
2023-03-28T23:35:12.041Z,6.20
2023-03-28T23:37:41.650Z,5.80
2023-03-28T23:40:14.577Z,5.80
2023-03-28T23:42:44.497Z,5.80
2023-03-28T23:45:13.797Z,5.80
2023-03-28T23:47:42.249Z,5.80
2023-03-28T23:50:11.136Z,5.80
2023-03-28T23:52:39.751Z,5.80
2023-03-28T23:55:09.927Z,5.80
2023-03-28T23:57:37.868Z,5.80
